Time;durP1;ratioP1;P1;durP2;ratioP2;P2;SDS_P1;SDS_P2;PMS_P1;PMS_P2;Temp;Humidity;BMP_temperature;BMP_pressure;BME280_temperature;BME280_humidity;BME280_pressure;Samples;Min_cycle;Max_cycle;Signal;HPM_P1;HPM_P2
2022/06/16 00:00:53;;;;;;;0.30;0.30;;;14.40;99.90;;;;;;5073632;28;20041;-73
2022/06/16 00:03:19;;;;;;;0.30;0.30;;;14.40;99.90;;;;;;5073856;28;20105;-73
2022/06/16 00:05:45;;;;;;;0.30;0.30;;;14.30;99.90;;;;;;5073548;28;20060;-73
2022/06/16 00:08:14;;;;;;;0.30;0.30;;;14.30;99.90;;;;;;5073641;28;20051;-73
2022/06/16 00:11:16;;;;;;;0.40;0.40;;;14.30;99.90;;;;;;5073459;28;20051;-73
2022/06/16 00:13:33;;;;;;;0.73;0.73;;;14.30;99.90;;;;;;5073077;28;20044;-73
2022/06/16 00:15:59;;;;;;;0.40;0.40;;;14.20;99.90;;;;;;5073412;28;20060;-73
2022/06/16 00:18:25;;;;;;;0.40;0.40;;;14.20;99.90;;;;;;5073402;28;20040;-73
2022/06/16 00:20:51;;;;;;;0.52;0.52;;;14.20;99.90;;;;;;5073412;28;20044;-73
2022/06/16 00:23:16;;;;;;;0.40;0.40;;;14.10;99.90;;;;;;5073359;28;20114;-74
2022/06/16 00:25:42;;;;;;;0.30;0.30;;;14.10;99.90;;;;;;5073801;28;20048;-73
2022/06/16 00:28:08;;;;;;;0.38;0.38;;;14.20;99.90;;;;;;5073689;28;20208;-73
2022/06/16 00:30:33;;;;;;;0.40;0.40;;;14.10;99.90;;;;;;5073711;28;20040;-73
2022/06/16 00:32:59;;;;;;;0.30;0.30;;;14.30;99.90;;;;;;5073294;28;20480;-74
2022/06/16 00:35:25;;;;;;;0.40;0.40;;;14.10;99.90;;;;;;5073339;28;20400;-74
2022/06/16 00:37:50;;;;;;;0.30;0.30;;;14.00;99.90;;;;;;5073535;28;20044;-73
2022/06/16 00:40:16;;;;;;;0.40;0.40;;;14.00;99.90;;;;;;5073713;28;20489;-74
2022/06/16 00:42:44;;;;;;;0.60;0.60;;;14.00;99.90;;;;;;5073573;28;20561;-73
2022/06/16 00:46:04;;;;;;;0.30;0.30;;;14.00;99.90;;;;;;5073183;28;20040;-74
2022/06/16 00:48:35;;;;;;;;;;;14.00;99.90;;;;;;4972460;28;20492;-73
2022/06/16 00:51:04;;;;;;;0.30;0.30;;;14.00;99.90;;;;;;5056049;28;19920;-73
2022/06/16 00:53:29;;;;;;;0.30;0.30;;;14.10;99.90;;;;;;5073086;28;20052;-73
2022/06/16 00:55:56;;;;;;;0.30;0.30;;;14.00;99.90;;;;;;5073102;28;20075;-73
2022/06/16 00:58:24;;;;;;;0.40;0.40;;;14.00;99.90;;;;;;5073142;28;20037;-73
2022/06/16 01:00:50;;;;;;;0.30;0.30;;;14.00;99.90;;;;;;5072967;28;20048;-73
2022/06/16 01:06:25;;;;;;;0.30;0.30;;;14.00;99.90;;;;;;5073362;28;19928;-73
2022/06/16 01:08:54;;;;;;;0.30;0.30;;;13.90;99.90;;;;;;5064277;28;20614;-73
2022/06/16 01:14:38;;;;;;;0.30;0.30;;;13.90;99.90;;;;;;5076474;28;20052;-73
2022/06/16 01:17:12;;;;;;;0.30;0.30;;;13.90;99.90;;;;;;5076489;28;20048;-74
2022/06/16 01:20:09;;;;;;;0.30;0.30;;;14.20;99.90;;;;;;5076379;28;20045;-74
2022/06/16 01:23:13;;;;;;;1.05;0.70;;;13.90;99.90;;;;;;5075440;28;20103;-74
2022/06/16 01:26:12;;;;;;;0.35;0.35;;;13.80;99.90;;;;;;5076283;28;20407;-73
2022/06/16 01:28:56;;;;;;;0.30;0.30;;;13.80;99.90;;;;;;5076194;28;20135;-73
2022/06/16 01:31:30;;;;;;;0.30;0.30;;;13.80;99.90;;;;;;5076207;28;20048;-73
2022/06/16 01:34:06;;;;;;;0.43;0.43;;;13.70;99.90;;;;;;5076470;28;20384;-73
2022/06/16 01:36:57;;;;;;;0.75;0.75;;;13.60;99.90;;;;;;5076041;28;20052;-73
2022/06/16 01:39:37;;;;;;;0.30;0.30;;;13.50;99.90;;;;;;5075422;28;20055;-73
2022/06/16 01:42:10;;;;;;;0.30;0.30;;;13.50;99.90;;;;;;5076210;28;20044;-73
2022/06/16 01:44:44;;;;;;;0.40;0.40;;;13.40;99.90;;;;;;5076008;28;20124;-73
2022/06/16 01:47:17;;;;;;;0.50;0.50;;;13.40;99.90;;;;;;5075794;28;20093;-73
2022/06/16 01:49:48;;;;;;;0.82;0.68;;;13.40;99.90;;;;;;5075758;28;20080;-74
2022/06/16 01:52:20;;;;;;;0.40;0.40;;;13.40;99.90;;;;;;5075835;28;20127;-73
2022/06/16 01:54:53;;;;;;;0.40;0.40;;;13.40;99.90;;;;;;5075742;28;20048;-73
2022/06/16 01:57:33;;;;;;;0.30;0.30;;;13.40;99.90;;;;;;5075649;28;20055;-73
2022/06/16 02:00:16;;;;;;;0.30;0.30;;;13.30;99.90;;;;;;5075663;28;20048;-73
2022/06/16 02:02:43;;;;;;;0.40;0.40;;;13.30;99.90;;;;;;5075663;28;20540;-74
2022/06/16 02:05:21;;;;;;;0.38;0.38;;;13.50;99.90;;;;;;5075486;28;20060;-74
2022/06/16 02:08:02;;;;;;;0.40;0.40;;;13.30;99.90;;;;;;5075503;28;20052;-74
2022/06/16 02:10:38;;;;;;;0.40;0.40;;;13.20;99.90;;;;;;5075670;28;20045;-74
2022/06/16 02:13:05;;;;;;;0.30;0.30;;;13.10;99.90;;;;;;5075413;28;20049;-74
2022/06/16 02:15:52;;;;;;;0.30;0.30;;;13.10;99.90;;;;;;5075296;28;20047;-73
2022/06/16 02:18:23;;;;;;;0.30;0.30;;;13.10;99.90;;;;;;5073870;28;20554;-74
2022/06/16 02:21:06;;;;;;;0.40;0.40;;;13.10;99.90;;;;;;5075630;28;20066;-74
2022/06/16 02:23:32;;;;;;;0.30;0.30;;;13.00;99.90;;;;;;5075191;28;20127;-74
2022/06/16 02:25:58;;;;;;;0.40;0.40;;;13.10;99.90;;;;;;5075156;28;20095;-74
2022/06/16 02:28:25;;;;;;;0.30;0.30;;;13.10;99.90;;;;;;5074998;28;20040;-74
2022/06/16 02:31:28;;;;;;;0.30;0.30;;;13.10;99.90;;;;;;5074656;28;20087;-74
2022/06/16 02:34:11;;;;;;;0.38;0.38;;;13.10;99.90;;;;;;5074928;28;20051;-74
2022/06/16 02:37:03;;;;;;;0.40;0.40;;;13.00;99.90;;;;;;5075024;28;20051;-74
2022/06/16 02:39:54;;;;;;;0.40;0.40;;;13.00;99.90;;;;;;5074878;28;20051;-74
2022/06/16 02:42:32;;;;;;;0.40;0.40;;;13.00;99.90;;;;;;5057336;28;20400;-74
2022/06/16 02:45:11;;;;;;;0.40;0.40;;;13.00;99.90;;;;;;5074890;28;20060;-74
2022/06/16 02:48:02;;;;;;;0.30;0.30;;;13.10;99.90;;;;;;5074590;28;20049;-74
2022/06/16 02:50:53;;;;;;;0.30;0.30;;;13.00;99.90;;;;;;5036012;28;20056;-74
2022/06/16 02:53:41;;;;;;;0.40;0.40;;;13.00;99.90;;;;;;5074732;28;20044;-74
2022/06/16 02:56:18;;;;;;;0.40;0.40;;;13.00;99.90;;;;;;5075292;28;20048;-74
2022/06/16 02:58:44;;;;;;;0.40;0.40;;;13.00;99.90;;;;;;5074533;28;20041;-74
2022/06/16 03:01:10;;;;;;;0.30;0.30;;;13.00;99.90;;;;;;5074398;28;20040;-73
2022/06/16 03:03:37;;;;;;;0.30;0.30;;;12.90;99.90;;;;;;5074387;28;20083;-74
2022/06/16 03:06:03;;;;;;;0.40;0.40;;;12.90;99.90;;;;;;5074270;28;20056;-73
2022/06/16 03:08:31;;;;;;;0.30;0.30;;;12.90;99.90;;;;;;5074090;28;20037;-74
2022/06/16 03:10:58;;;;;;;0.30;0.30;;;12.90;99.90;;;;;;5074248;28;20036;-72
2022/06/16 03:13:29;;;;;;;0.30;0.30;;;12.90;99.90;;;;;;5074369;28;20405;-73
2022/06/16 03:15:56;;;;;;;0.40;0.40;;;13.00;99.90;;;;;;5074438;28;20055;-73
2022/06/16 03:18:23;;;;;;;0.38;0.38;;;12.90;99.90;;;;;;5074263;28;20114;-73
2022/06/16 03:20:49;;;;;;;;;;;13.10;99.90;;;;;;5074429;28;20535;-73
2022/06/16 03:23:15;;;;;;;0.30;0.30;;;12.90;99.90;;;;;;5074075;28;19924;-73
2022/06/16 03:25:41;;;;;;;0.30;0.30;;;12.90;99.90;;;;;;5073998;28;20071;-72
2022/06/16 03:28:08;;;;;;;0.30;0.30;;;12.90;99.90;;;;;;5073958;28;20404;-73
2022/06/16 03:30:35;;;;;;;0.30;0.30;;;12.90;99.90;;;;;;5073802;28;20396;-73
2022/06/16 03:33:01;;;;;;;;;;;12.90;99.90;;;;;;5074260;28;20090;-73
2022/06/16 03:35:27;;;;;;;0.40;0.40;;;13.00;99.90;;;;;;5073844;28;19921;-72
2022/06/16 03:37:53;;;;;;;0.40;0.40;;;13.00;99.90;;;;;;5055968;28;20468;-72
2022/06/16 03:40:20;;;;;;;0.30;0.30;;;13.10;99.90;;;;;;5074223;28;20283;-73
2022/06/16 03:42:47;;;;;;;0.50;0.50;;;13.00;99.90;;;;;;5073821;28;20040;-73
2022/06/16 03:45:13;;;;;;;;;;;13.00;99.90;;;;;;5074393;28;20045;-73
2022/06/16 03:47:38;;;;;;;0.30;0.30;;;13.00;99.90;;;;;;5073711;28;19977;-73
2022/06/16 03:50:05;;;;;;;0.30;0.30;;;13.00;99.90;;;;;;5073618;28;20040;-73
2022/06/16 03:52:31;;;;;;;0.38;0.38;;;12.90;99.90;;;;;;5073617;28;20408;-72
2022/06/16 03:54:56;;;;;;;0.30;0.30;;;12.90;99.90;;;;;;5073718;28;20040;-73
2022/06/16 03:57:22;;;;;;;0.30;0.30;;;12.90;99.90;;;;;;5073629;28;20090;-72
2022/06/16 03:59:47;;;;;;;0.30;0.30;;;13.10;99.90;;;;;;5073868;28;20040;-73
2022/06/16 04:02:13;;;;;;;0.47;0.47;;;12.90;99.90;;;;;;5055609;28;20435;-73
2022/06/16 04:04:39;;;;;;;0.30;0.30;;;12.90;99.90;;;;;;5073521;28;20083;-73
2022/06/16 04:07:05;;;;;;;0.50;0.50;;;12.90;99.90;;;;;;5073574;28;20515;-73
2022/06/16 04:09:30;;;;;;;0.30;0.30;;;12.80;99.90;;;;;;5073256;28;20396;-73
2022/06/16 04:11:56;;;;;;;0.40;0.40;;;12.80;99.90;;;;;;5073518;28;20043;-73
2022/06/16 04:14:21;;;;;;;0.40;0.40;;;12.80;99.90;;;;;;5073560;28;20037;-74
2022/06/16 04:16:56;;;;;;;0.40;0.40;;;12.80;99.90;;;;;;5073497;28;20045;-74
2022/06/16 04:19:22;;;;;;;0.30;0.30;;;12.80;99.90;;;;;;5073786;28;20119;-74
2022/06/16 04:21:48;;;;;;;0.40;0.40;;;12.70;99.90;;;;;;5073492;28;20045;-73
2022/06/16 04:24:16;;;;;;;0.30;0.30;;;12.80;99.90;;;;;;5073408;28;20093;-73
2022/06/16 04:26:42;;;;;;;0.30;0.30;;;12.80;99.90;;;;;;5073371;28;20093;-74
2022/06/16 04:29:09;;;;;;;0.30;0.30;;;12.80;99.90;;;;;;5073320;28;20036;-73
2022/06/16 04:31:36;;;;;;;0.40;0.40;;;12.80;99.90;;;;;;5073336;28;20086;-74
2022/06/16 04:34:02;;;;;;;0.40;0.40;;;12.90;99.90;;;;;;5073290;28;20055;-74
2022/06/16 04:36:28;;;;;;;0.40;0.40;;;13.00;99.90;;;;;;5073214;28;20553;-74
2022/06/16 04:38:54;;;;;;;0.30;0.30;;;13.30;99.90;;;;;;5073313;28;20127;-73
2022/06/16 04:41:20;;;;;;;0.40;0.40;;;13.20;99.90;;;;;;5073540;28;20079;-74
2022/06/16 04:43:46;;;;;;;3.23;0.53;;;13.20;99.90;;;;;;5077117;28;20055;-72
2022/06/16 04:46:16;;;;;;;0.50;0.50;;;13.30;99.90;;;;;;5077206;28;20040;-72
2022/06/16 04:48:43;;;;;;;0.30;0.30;;;13.40;99.90;;;;;;5076916;28;20057;-73
2022/06/16 04:51:09;;;;;;;;;;;13.60;99.90;;;;;;5077337;28;20106;-72
2022/06/16 04:53:35;;;;;;;0.30;0.30;;;13.70;99.90;;;;;;5076810;28;19920;-73
2022/06/16 04:56:03;;;;;;;0.30;0.30;;;13.80;99.90;;;;;;5077138;28;20166;-72
2022/06/16 04:58:30;;;;;;;0.30;0.30;;;13.90;99.90;;;;;;5076771;28;20047;-73
2022/06/16 05:00:56;;;;;;;0.30;0.30;;;14.00;99.90;;;;;;5076787;28;20040;-73
2022/06/16 05:03:25;;;;;;;0.30;0.30;;;14.10;99.90;;;;;;5076635;28;20131;-73
2022/06/16 05:05:52;;;;;;;0.32;0.32;;;14.30;99.90;;;;;;5076942;28;20044;-73
2022/06/16 05:08:19;;;;;;;0.30;0.30;;;14.50;99.90;;;;;;5076606;28;20049;-73
2022/06/16 05:10:45;;;;;;;;;;;14.70;99.90;;;;;;5076953;28;20045;-73
2022/06/16 05:13:11;;;;;;;0.30;0.30;;;14.80;99.90;;;;;;5076656;28;20015;-72
2022/06/16 05:15:37;;;;;;;0.40;0.40;;;14.90;99.90;;;;;;5076516;28;20481;-73
2022/06/16 05:18:03;;;;;;;0.50;0.50;;;15.00;99.90;;;;;;5076457;28;20085;-73
2022/06/16 05:20:29;;;;;;;0.38;0.38;;;15.10;99.90;;;;;;5076407;28;20082;-73
2022/06/16 05:22:55;;;;;;;0.30;0.30;;;15.20;99.90;;;;;;5076733;28;20091;-74
2022/06/16 05:25:20;;;;;;;0.30;0.30;;;15.30;99.90;;;;;;5076546;28;20048;-73
2022/06/16 05:27:46;;;;;;;0.40;0.40;;;15.50;99.90;;;;;;5076278;28;20083;-74
2022/06/16 05:30:13;;;;;;;0.30;0.30;;;15.60;99.90;;;;;;5076167;28;20045;-74
2022/06/16 05:32:39;;;;;;;2.65;0.47;;;15.60;99.90;;;;;;5076030;28;20377;-74
2022/06/16 05:35:05;;;;;;;0.30;0.30;;;15.60;99.90;;;;;;5076081;28;20075;-73
2022/06/16 05:37:31;;;;;;;0.32;0.32;;;15.80;99.90;;;;;;5058805;28;20314;-73
2022/06/16 05:39:57;;;;;;;0.30;0.30;;;15.90;99.90;;;;;;5076343;28;20043;-73
2022/06/16 05:42:22;;;;;;;0.40;0.40;;;16.00;99.90;;;;;;5076188;28;20044;-73
2022/06/16 05:44:48;;;;;;;0.30;0.30;;;16.10;99.90;;;;;;5075838;28;20053;-74
2022/06/16 05:47:14;;;;;;;0.30;0.30;;;16.30;99.90;;;;;;5075904;28;20047;-73
2022/06/16 05:49:42;;;;;;;0.30;0.30;;;16.50;99.90;;;;;;5076520;28;20086;-73
2022/06/16 05:52:14;;;;;;;0.30;0.30;;;16.70;99.90;;;;;;5075615;28;20036;-73
2022/06/16 05:54:40;;;;;;;0.30;0.30;;;16.80;99.90;;;;;;5058068;28;20131;-73
2022/06/16 05:57:08;;;;;;;0.57;0.57;;;17.00;99.90;;;;;;5075712;28;20080;-73
2022/06/16 05:59:34;;;;;;;0.35;0.35;;;17.00;99.90;;;;;;5075641;28;20044;-73
2022/06/16 06:01:59;;;;;;;0.30;0.30;;;17.00;99.90;;;;;;5057763;28;20045;-73
2022/06/16 06:04:25;;;;;;;0.40;0.40;;;16.90;99.90;;;;;;5075434;28;20056;-73
2022/06/16 06:06:50;;;;;;;0.30;0.30;;;16.70;99.90;;;;;;5075336;28;20528;-73
2022/06/16 06:17:37;;;;;;;0.50;0.50;;;16.90;99.90;;;;;;5075626;28;20052;-74
2022/06/16 06:20:04;;;;;;;0.30;0.30;;;17.20;99.90;;;;;;5075309;28;20080;-74
2022/06/16 06:22:29;;;;;;;;;;;17.50;99.90;;;;;;5075624;28;20063;-74
2022/06/16 06:24:58;;;;;;;0.30;0.30;;;17.70;99.90;;;;;;5075005;28;19920;-73
2022/06/16 06:27:37;;;;;;;0.30;0.30;;;17.80;99.90;;;;;;5075149;28;20114;-74
2022/06/16 06:30:14;;;;;;;0.30;0.30;;;17.80;99.90;;;;;;5075113;28;20434;-73
2022/06/16 06:32:40;;;;;;;0.60;0.60;;;18.10;99.90;;;;;;5075196;28;20128;-73
2022/06/16 06:35:06;;;;;;;0.30;0.30;;;18.10;99.90;;;;;;5074935;28;20040;-74
2022/06/16 06:37:32;;;;;;;0.30;0.30;;;18.00;99.90;;;;;;5074750;28;20075;-74
2022/06/16 06:39:58;;;;;;;0.30;0.30;;;18.00;99.90;;;;;;5074944;28;20056;-73
2022/06/16 06:42:24;;;;;;;0.30;0.30;;;17.90;99.90;;;;;;5075187;28;20044;-73
2022/06/16 06:44:50;;;;;;;0.30;0.30;;;18.00;99.90;;;;;;5074776;28;20052;-73
2022/06/16 06:47:20;;;;;;;0.30;0.30;;;18.20;99.90;;;;;;5074749;28;20063;-73
2022/06/16 06:49:46;;;;;;;0.30;0.30;;;18.20;99.90;;;;;;5074680;28;20040;-73
2022/06/16 06:52:12;;;;;;;0.30;0.30;;;18.20;99.90;;;;;;5057055;28;20048;-72
2022/06/16 06:54:38;;;;;;;0.30;0.30;;;18.10;99.90;;;;;;5074311;28;20126;-72
2022/06/16 06:57:05;;;;;;;0.30;0.30;;;18.20;99.90;;;;;;5074537;28;20083;-73
2022/06/16 06:59:30;;;;;;;0.30;0.30;;;18.40;99.90;;;;;;5074507;28;20310;-73
2022/06/16 07:01:56;;;;;;;0.30;0.30;;;18.50;99.90;;;;;;5074397;28;20079;-73
2022/06/16 07:04:23;;;;;;;1.35;0.70;;;18.50;99.90;;;;;;5073815;28;20131;-73
2022/06/16 07:06:49;;;;;;;0.30;0.30;;;18.60;99.90;;;;;;5074224;28;20056;-73
2022/06/16 07:09:16;;;;;;;0.30;0.30;;;18.70;99.90;;;;;;5074232;28;20033;-73
2022/06/16 07:11:43;;;;;;;0.30;0.30;;;18.60;99.90;;;;;;5073873;28;20643;-74
2022/06/16 07:14:09;;;;;;;0.30;0.30;;;18.70;99.90;;;;;;5074174;28;20060;-73
2022/06/16 07:16:35;;;;;;;0.30;0.30;;;18.80;99.90;;;;;;5056632;28;20136;-73
2022/06/16 07:19:02;;;;;;;0.32;0.32;;;18.80;99.90;;;;;;5074121;28;20040;-73
2022/06/16 07:21:27;;;;;;;0.30;0.30;;;18.90;99.90;;;;;;5073965;28;20058;-73
2022/06/16 07:23:54;;;;;;;1.00;0.30;;;18.90;99.90;;;;;;5074520;28;20123;-73
2022/06/16 07:26:20;;;;;;;0.30;0.30;;;19.00;99.90;;;;;;5073941;28;20060;-73
2022/06/16 07:28:47;;;;;;;0.30;0.30;;;19.00;99.90;;;;;;5074114;28;20048;-72
2022/06/16 07:31:13;;;;;;;0.20;0.20;;;19.20;99.90;;;;;;5074030;28;20044;-73
2022/06/16 07:33:39;;;;;;;0.55;0.55;;;19.20;99.90;;;;;;5073943;28;20063;-73
2022/06/16 07:36:05;;;;;;;0.30;0.30;;;19.20;98.90;;;;;;5073868;28;20496;-73
2022/06/16 07:38:30;;;;;;;0.30;0.30;;;19.40;99.90;;;;;;5074227;28;20045;-73
2022/06/16 07:41:31;;;;;;;0.30;0.30;;;19.40;99.20;;;;;;5074159;28;20546;-73
2022/06/16 07:43:42;;;;;;;0.30;0.30;;;19.40;99.90;;;;;;5073758;28;20045;-73
2022/06/16 07:46:08;;;;;;;0.30;0.30;;;19.50;99.90;;;;;;5073784;28;20047;-73
2022/06/16 07:48:33;;;;;;;0.40;0.40;;;19.60;99.90;;;;;;5073628;28;20052;-73
2022/06/16 07:50:59;;;;;;;0.40;0.40;;;19.80;99.90;;;;;;5074158;28;20052;-73
2022/06/16 07:53:25;;;;;;;0.30;0.30;;;19.80;99.90;;;;;;5073607;28;20041;-73
2022/06/16 07:55:50;;;;;;;0.27;0.27;;;19.90;99.50;;;;;;5056246;28;20047;-73
2022/06/16 07:58:16;;;;;;;0.37;0.37;;;20.10;99.90;;;;;;5073648;28;20051;-73
2022/06/16 08:00:41;;;;;;;0.40;0.40;;;20.20;99.80;;;;;;5073678;28;20049;-73
2022/06/16 08:03:07;;;;;;;0.30;0.30;;;20.20;98.80;;;;;;5073526;28;20045;-73
2022/06/16 08:05:33;;;;;;;0.30;0.30;;;20.30;98.40;;;;;;5073951;28;20052;-73
2022/06/16 08:07:59;;;;;;;0.30;0.30;;;20.30;98.80;;;;;;5073644;28;20411;-73
2022/06/16 08:10:27;;;;;;;0.30;0.30;;;20.40;97.50;;;;;;5073452;28;20033;-73
2022/06/16 08:12:54;;;;;;;0.20;0.20;;;20.50;97.50;;;;;;5073287;28;20393;-73
2022/06/16 08:15:20;;;;;;;0.20;0.20;;;20.70;97.60;;;;;;5073507;28;20049;-72
2022/06/16 08:17:49;;;;;;;0.30;0.30;;;20.70;95.80;;;;;;5076261;28;20400;-73
2022/06/16 08:20:15;;;;;;;0.20;0.20;;;20.80;96.90;;;;;;5077558;28;20041;-73
2022/06/16 08:22:42;;;;;;;0.30;0.30;;;20.80;96.60;;;;;;5077896;28;20101;-73
2022/06/16 08:25:11;;;;;;;0.20;0.20;;;20.90;96.20;;;;;;5077481;28;20041;-72
2022/06/16 08:27:38;;;;;;;0.30;0.30;;;20.80;94.90;;;;;;5077467;28;20174;-73
2022/06/16 08:30:08;;;;;;;0.40;0.40;;;20.90;95.50;;;;;;5077231;28;20045;-72
2022/06/16 08:32:34;;;;;;;1.55;0.30;;;21.10;94.80;;;;;;5077226;28;20480;-72
2022/06/16 08:35:00;;;;;;;0.30;0.30;;;21.10;95.70;;;;;;5077286;28;20052;-73
2022/06/16 08:37:26;;;;;;;0.20;0.20;;;21.10;95.80;;;;;;5077247;28;20388;-73
2022/06/16 08:39:52;;;;;;;0.30;0.30;;;21.10;95.20;;;;;;5077469;28;20037;-73
2022/06/16 08:42:41;;;;;;;0.37;0.37;;;21.10;95.60;;;;;;5077280;28;20040;-73
2022/06/16 08:45:29;;;;;;;0.30;0.30;;;21.20;95.70;;;;;;5076968;28;20078;-73
2022/06/16 08:48:21;;;;;;;0.22;0.22;;;21.30;95.30;;;;;;5076712;28;20508;-73
2022/06/16 08:50:55;;;;;;;0.75;0.75;;;21.40;94.60;;;;;;5076894;28;20128;-73
2022/06/16 08:53:29;;;;;;;0.30;0.30;;;21.30;94.90;;;;;;5076909;28;20044;-73
2022/06/16 08:56:12;;;;;;;0.20;0.20;;;21.20;94.30;;;;;;5077243;28;20044;-73
2022/06/16 08:58:41;;;;;;;0.30;0.30;;;21.30;94.90;;;;;;5059394;28;20373;-73
2022/06/16 09:01:19;;;;;;;0.20;0.20;;;21.40;94.90;;;;;;5076648;28;20070;-73
2022/06/16 09:03:48;;;;;;;0.30;0.30;;;21.50;94.50;;;;;;5076740;28;20367;-73
2022/06/16 09:06:42;;;;;;;0.20;0.20;;;21.50;93.40;;;;;;5076573;28;20123;-73
2022/06/16 09:10:14;;;;;;;0.20;0.20;;;21.50;94.40;;;;;;5076522;28;20052;-73
2022/06/16 09:12:17;;;;;;;0.25;0.25;;;21.30;94.30;;;;;;5076260;28;20496;-73
2022/06/16 09:15:11;;;;;;;0.50;0.50;;;21.40;94.30;;;;;;5076900;28;20041;-74
2022/06/16 09:17:43;;;;;;;0.30;0.30;;;21.50;94.40;;;;;;5076686;28;20087;-74
2022/06/16 09:20:40;;;;;;;0.20;0.20;;;21.70;94.80;;;;;;5076424;28;20048;-74
2022/06/16 09:23:23;;;;;;;0.30;0.30;;;21.80;93.90;;;;;;5076082;28;20446;-73
2022/06/16 09:26:12;;;;;;;0.30;0.30;;;22.00;94.90;;;;;;5076329;28;20496;-74
2022/06/16 09:29:11;;;;;;;0.40;0.40;;;22.20;92.60;;;;;;5057635;28;20080;-74
2022/06/16 09:32:05;;;;;;;0.45;0.40;;;22.10;92.80;;;;;;5058722;28;20052;-74
2022/06/16 09:34:55;;;;;;;0.20;0.20;;;22.10;92.20;;;;;;5076141;28;20045;-74
2022/06/16 09:38:03;;;;;;;0.30;0.30;;;21.90;92.80;;;;;;5076050;28;20053;-74
2022/06/16 09:40:51;;;;;;;0.30;0.30;;;21.90;94.00;;;;;;5062888;28;20063;-74
2022/06/16 09:43:35;;;;;;;0.30;0.30;;;22.10;94.60;;;;;;5076032;28;20045;-74
2022/06/16 09:46:23;;;;;;;0.20;0.20;;;22.40;94.00;;;;;;5075692;28;20535;-74
2022/06/16 09:48:57;;;;;;;;;;;22.50;93.80;;;;;;5076270;28;20056;-74
2022/06/16 09:51:46;;;;;;;0.30;0.30;;;22.60;93.00;;;;;;5075815;28;19920;-74
2022/06/16 09:54:24;;;;;;;0.30;0.30;;;22.70;93.10;;;;;;5076522;28;20183;-74
2022/06/16 09:56:58;;;;;;;0.30;0.30;;;22.80;93.10;;;;;;5076139;28;20048;-74
2022/06/16 09:59:39;;;;;;;0.50;0.50;;;22.90;93.30;;;;;;5075807;28;20392;-74
2022/06/16 10:02:11;;;;;;;0.28;0.28;;;23.00;93.00;;;;;;5075632;28;20037;-74
2022/06/16 10:04:37;;;;;;;0.20;0.20;;;23.00;93.00;;;;;;5075641;28;20123;-74
2022/06/16 10:07:19;;;;;;;0.20;0.20;;;23.10;93.10;;;;;;5075548;28;20518;-74
2022/06/16 10:09:56;;;;;;;0.40;0.40;;;23.00;93.70;;;;;;5075529;28;20040;-74
2022/06/16 10:12:43;;;;;;;0.30;0.30;;;23.10;93.40;;;;;;5075393;28;20476;-74
2022/06/16 10:15:19;;;;;;;0.45;0.45;;;23.10;93.10;;;;;;5075445;28;20053;-73
2022/06/16 10:17:46;;;;;;;0.30;0.30;;;23.10;92.30;;;;;;5075348;28;20089;-73
2022/06/16 10:20:15;;;;;;;0.30;0.30;;;23.20;92.90;;;;;;5075294;28;20045;-73
2022/06/16 10:22:50;;;;;;;0.20;0.20;;;23.30;93.10;;;;;;5075492;28;20037;-74
2022/06/16 10:25:21;;;;;;;0.95;0.95;;;23.30;91.40;;;;;;5075108;28;20049;-73
2022/06/16 10:27:48;;;;;;;0.43;0.43;;;23.20;92.60;;;;;;5075875;28;20041;-73
2022/06/16 10:30:22;;;;;;;0.30;0.30;;;23.10;92.80;;;;;;5074984;28;20040;-73
2022/06/16 10:32:58;;;;;;;0.30;0.30;;;23.10;92.20;;;;;;5075033;28;20151;-73
2022/06/16 10:35:24;;;;;;;1.08;1.02;;;23.30;92.50;;;;;;5075043;28;20055;-73
2022/06/16 10:37:53;;;;;;;0.40;0.40;;;23.30;91.00;;;;;;5074818;28;20048;-74
2022/06/16 10:40:23;;;;;;;0.30;0.30;;;23.40;92.10;;;;;;5073946;28;20631;-74
2022/06/16 10:43:03;;;;;;;0.30;0.30;;;23.60;90.30;;;;;;5074735;28;20049;-74
2022/06/16 10:45:33;;;;;;;0.30;0.30;;;23.80;90.40;;;;;;5075016;28;20135;-74
2022/06/16 10:48:03;;;;;;;0.30;0.30;;;23.50;90.50;;;;;;5074747;28;20048;-75
2022/06/16 10:50:42;;;;;;;0.20;0.20;;;23.40;90.80;;;;;;5074491;28;20127;-74
2022/06/16 10:53:19;;;;;;;0.20;0.20;;;23.50;91.10;;;;;;5074581;28;20499;-75
2022/06/16 10:55:47;;;;;;;0.50;0.50;;;23.60;90.70;;;;;;5074835;28;20044;-74
2022/06/16 10:58:23;;;;;;;0.30;0.30;;;23.80;91.60;;;;;;5074359;28;20481;-74
2022/06/16 11:01:15;;;;;;;0.30;0.30;;;23.90;91.30;;;;;;5074439;28;20041;-75
2022/06/16 11:03:44;;;;;;;0.32;0.32;;;24.10;91.10;;;;;;5074796;28;20401;-75
2022/06/16 11:06:13;;;;;;;0.40;0.40;;;24.20;91.00;;;;;;5074600;28;20072;-75
2022/06/16 11:08:42;;;;;;;0.20;0.20;;;24.10;90.80;;;;;;5074344;28;20110;-74
2022/06/16 11:11:09;;;;;;;0.40;0.40;;;24.30;91.50;;;;;;5074317;28;20044;-74
2022/06/16 11:13:53;;;;;;;0.20;0.20;;;24.30;90.50;;;;;;5074550;28;20048;-74
2022/06/16 11:16:30;;;;;;;0.20;0.20;;;24.30;91.50;;;;;;5074845;28;20088;-75
2022/06/16 11:18:59;;;;;;;0.20;0.20;;;24.40;90.50;;;;;;5074230;28;20049;-75
2022/06/16 11:21:29;;;;;;;0.30;0.30;;;24.40;91.30;;;;;;5074060;28;20044;-75
2022/06/16 11:23:57;;;;;;;1.17;0.50;;;24.50;90.30;;;;;;5074099;28;20378;-74
2022/06/16 11:26:33;;;;;;;0.80;0.60;;;24.60;90.70;;;;;;5074003;28;20127;-75
2022/06/16 11:29:24;;;;;;;0.30;0.30;;;24.40;89.60;;;;;;5056815;28;20048;-75
2022/06/16 11:32:04;;;;;;;0.20;0.20;;;24.20;90.00;;;;;;5074229;28;20044;-75
2022/06/16 11:34:30;;;;;;;0.40;0.40;;;24.30;90.50;;;;;;5073804;28;20451;-75
2022/06/16 11:37:25;;;;;;;0.30;0.30;;;24.40;90.40;;;;;;5073928;28;20032;-75
2022/06/16 11:40:02;;;;;;;0.30;0.30;;;24.60;90.70;;;;;;5074104;28;20045;-75
2022/06/16 11:42:31;;;;;;;0.30;0.30;;;24.80;90.80;;;;;;5073854;28;20055;-75
2022/06/16 11:45:17;;;;;;;0.20;0.20;;;24.80;90.70;;;;;;5073619;28;20545;-74
2022/06/16 11:47:47;;;;;;;6.03;1.05;;;24.60;90.30;;;;;;5073473;28;20147;-75
2022/06/16 11:50:30;;;;;;;0.30;0.30;;;24.90;91.40;;;;;;5073523;28;20396;-74
2022/06/16 11:52:59;;;;;;;0.30;0.30;;;25.10;90.00;;;;;;5074333;28;20137;-75
2022/06/16 11:55:41;;;;;;;0.20;0.20;;;25.20;89.90;;;;;;5073341;28;20127;-75
2022/06/16 11:58:10;;;;;;;0.30;0.30;;;25.20;89.10;;;;;;5074105;28;20041;-74
2022/06/16 12:01:05;;;;;;;0.20;0.20;;;25.00;89.70;;;;;;5056043;28;20141;-75
2022/06/16 12:03:37;;;;;;;0.52;0.40;;;24.90;87.80;;;;;;5064462;28;20131;-75
2022/06/16 12:06:16;;;;;;;0.40;0.40;;;25.10;89.90;;;;;;5073990;28;20052;-75
2022/06/16 12:08:57;;;;;;;0.40;0.40;;;25.20;89.60;;;;;;5073817;28;20135;-74
2022/06/16 12:11:25;;;;;;;0.30;0.30;;;25.30;88.60;;;;;;5073464;28;20048;-74
2022/06/16 12:14:08;;;;;;;0.30;0.30;;;25.30;88.30;;;;;;5073489;28;20043;-74
2022/06/16 12:16:42;;;;;;;0.52;0.40;;;25.10;87.00;;;;;;5073244;28;20473;-74
2022/06/16 12:19:33;;;;;;;0.38;0.38;;;24.60;89.20;;;;;;5073820;28;20051;-74
2022/06/16 12:22:09;;;;;;;0.30;0.30;;;24.60;89.80;;;;;;5073215;28;20063;-74
2022/06/16 12:24:45;;;;;;;0.40;0.40;;;24.80;88.60;;;;;;5073393;28;20051;-74
2022/06/16 12:27:20;;;;;;;0.40;0.40;;;24.80;86.80;;;;;;5073539;28;20045;-74
2022/06/16 12:30:12;;;;;;;0.30;0.30;;;25.20;89.70;;;;;;5073671;28;20048;-73
2022/06/16 12:32:48;;;;;;;0.32;0.32;;;25.10;88.80;;;;;;5073329;28;20044;-74
2022/06/16 12:35:42;;;;;;;0.40;0.40;;;25.50;89.80;;;;;;5073335;28;20079;-74
2022/06/16 12:38:31;;;;;;;0.52;0.47;;;25.40;87.00;;;;;;5073292;28;20136;-74
2022/06/16 12:41:03;;;;;;;0.30;0.30;;;25.50;85.90;;;;;;5073351;28;20087;-74
2022/06/16 12:43:54;;;;;;;0.38;0.38;;;25.50;86.50;;;;;;5073306;28;20078;-74
2022/06/16 12:46:28;;;;;;;0.30;0.30;;;25.30;85.70;;;;;;5073534;28;20063;-74
2022/06/16 12:49:01;;;;;;;0.30;0.30;;;25.60;88.90;;;;;;5073334;28;20048;-74
2022/06/16 12:51:45;;;;;;;0.40;0.40;;;25.90;87.90;;;;;;5055317;28;20119;-74
2022/06/16 12:54:21;;;;;;;0.30;0.30;;;25.90;86.90;;;;;;5073167;28;20040;-74
2022/06/16 12:56:54;;;;;;;0.30;0.30;;;25.90;86.80;;;;;;5072816;28;20052;-74
2022/06/16 12:59:25;;;;;;;0.30;0.30;;;25.20;85.40;;;;;;5073070;28;20053;-74
2022/06/16 13:01:55;;;;;;;0.30;0.30;;;24.90;87.60;;;;;;5073072;28;20060;-74
2022/06/16 13:04:27;;;;;;;0.38;0.38;;;24.40;88.50;;;;;;5076085;28;20057;-74
2022/06/16 13:06:55;;;;;;;0.40;0.40;;;24.30;88.30;;;;;;5076941;28;20090;-74
2022/06/16 13:09:23;;;;;;;0.20;0.20;;;24.50;89.00;;;;;;5076529;28;20044;-75
2022/06/16 13:12:02;;;;;;;0.30;0.30;;;24.90;89.50;;;;;;5077085;28;20423;-75
2022/06/16 13:14:35;;;;;;;0.55;0.50;;;25.10;88.20;;;;;;5076629;28;20053;-77
2022/06/16 13:17:05;;;;;;;0.20;0.20;;;24.90;89.20;;;;;;5076477;28;20442;-75
2022/06/16 13:19:41;;;;;;;0.30;0.30;;;24.80;90.00;;;;;;5076572;28;20036;-75
2022/06/16 13:22:19;;;;;;;0.25;0.25;;;24.60;90.00;;;;;;5076473;28;20053;-76
2022/06/16 13:24:51;;;;;;;0.40;0.40;;;24.80;90.00;;;;;;5076385;28;20477;-78
2022/06/16 13:27:38;;;;;;;0.63;0.47;;;25.00;88.90;;;;;;5076273;28;20511;-78
2022/06/16 13:30:07;;;;;;;0.50;0.50;;;25.30;89.40;;;;;;5076217;28;20037;-77